Time;durP1;ratioP1;P1;durP2;ratioP2;P2;SDS_P1;SDS_P2;PMS_P1;PMS_P2;Temp;Humidity;BMP_temperature;BMP_pressure;BME280_temperature;BME280_humidity;BME280_pressure;Samples;Min_cycle;Max_cycle;Signal;HPM_P1;HPM_P2
2021/09/26 00:02:23;;;;;;;6.30;5.70;;;;;;;22.14;57.72;96697.22;5104412;28;20194;-69
2021/09/26 00:04:49;;;;;;;9.07;6.27;;;;;;;22.27;57.45;96696.13;5104879;28;20177;-67
2021/09/26 00:07:15;;;;;;;7.90;6.30;;;;;;;22.18;57.53;96699.16;5103643;28;20287;-68
2021/09/26 00:09:40;;;;;;;7.67;6.60;;;;;;;22.02;58.02;96692.75;5080564;28;20226;-67
2021/09/26 00:12:06;;;;;;;7.70;6.80;;;;;;;22.19;57.86;96689.31;5094363;28;20241;-70
2021/09/26 00:14:32;;;;;;;13.10;7.30;;;;;;;21.94;58.91;96691.25;5091835;28;20185;-67
2021/09/26 00:16:58;;;;;;;8.13;6.57;;;;;;;21.71;59.64;96686.00;5091167;28;20432;-67
2021/09/26 00:19:25;;;;;;;8.73;7.13;;;;;;;21.70;59.86;96687.06;5091229;28;20508;-67
2021/09/26 00:21:51;;;;;;;15.43;7.37;;;;;;;21.63;60.17;96682.69;5090158;28;20243;-68
2021/09/26 00:24:17;;;;;;;16.40;7.07;;;;;;;21.86;59.32;96678.31;5091378;28;20419;-67
2021/09/26 00:26:43;;;;;;;12.13;7.00;;;;;;;20.99;62.45;96682.59;5095467;28;20178;-67
2021/09/26 00:29:08;;;;;;;7.43;6.73;;;;;;;21.32;61.34;96674.00;5095420;28;20503;-68
2021/09/26 00:31:34;;;;;;;9.23;7.20;;;;;;;21.06;62.27;96675.31;5095730;28;20458;-67
2021/09/26 00:34:00;;;;;;;8.80;6.50;;;;;;;21.10;62.40;96665.00;5095743;28;20188;-68
2021/09/26 00:36:25;;;;;;;7.63;6.30;;;;;;;21.61;60.42;96670.66;5091071;28;20290;-68
2021/09/26 00:38:51;;;;;;;10.87;6.83;;;;;;;21.83;59.32;96675.31;5103673;28;20273;-67
2021/09/26 00:41:17;;;;;;;9.73;6.60;;;;;;;21.80;59.57;96663.25;5105271;28;20170;-68
2021/09/26 00:43:42;;;;;;;8.67;6.90;;;;;;;21.90;58.93;96663.47;5105459;28;20170;-68
2021/09/26 00:46:09;;;;;;;9.50;6.40;;;;;;;21.48;60.45;96667.13;5104983;28;20444;-68
2021/09/26 00:48:35;;;;;;;14.37;7.90;;;;;;;21.28;60.99;96674.72;5103060;28;20435;-68
2021/09/26 00:51:02;;;;;;;12.30;6.30;;;;;;;21.54;60.24;96669.91;5105768;28;20250;-68
2021/09/26 00:53:28;;;;;;;6.90;6.10;;;;;;;21.72;59.56;96672.47;5105748;28;20500;-67
2021/09/26 00:55:57;;;;;;;6.70;6.00;;;;;;;21.86;58.92;96672.97;5101168;28;20502;-68
2021/09/26 00:58:23;;;;;;;8.40;5.17;;;;;;;21.96;58.62;96666.22;5094649;28;20178;-68
2021/09/26 01:00:48;;;;;;;17.53;5.97;;;;;;;21.76;59.08;96667.47;5094413;28;20437;-70
2021/09/26 01:03:14;;;;;;;13.97;6.33;;;;;;;21.90;58.79;96667.97;5085440;28;20439;-66
2021/09/26 01:05:39;;;;;;;8.87;5.90;;;;;;;21.71;59.28;96670.00;5091715;28;20588;-68
2021/09/26 01:08:27;;;;;;;12.27;5.97;;;;;;;21.80;58.97;96673.91;5098462;28;20247;-69
2021/09/26 01:11:00;;;;;;;8.63;6.20;;;;;;;21.86;59.12;96672.97;5096594;28;20186;-67
2021/09/26 01:13:56;;;;;;;6.70;6.00;;;;;;;21.85;59.23;96673.22;5094965;28;20480;-68
2021/09/26 01:16:33;;;;;;;16.80;6.20;;;;;;;21.54;60.40;96670.75;5086962;28;20416;-67
2021/09/26 01:19:21;;;;;;;12.83;5.83;;;;;;;21.86;59.16;96670.31;5069149;28;20419;-67
2021/09/26 01:22:02;;;;;;;17.23;6.27;;;;;;;22.09;58.51;96672.09;5094425;28;20546;-66
2021/09/26 01:24:46;;;;;;;10.90;5.77;;;;;;;21.88;59.53;96664.72;5092969;28;20435;-68
2021/09/26 01:27:35;;;;;;;11.90;6.30;;;;;;;22.12;58.74;96676.13;5094261;28;20439;-68
2021/09/26 01:30:28;;;;;;;12.60;5.90;;;;;;;21.88;59.77;96673.56;5092535;28;20861;-67
2021/09/26 01:33:15;;;;;;;8.73;5.97;;;;;;;21.99;59.42;96681.75;5089978;28;20466;-67
2021/09/26 01:36:11;;;;;;;7.97;6.67;;;;;;;21.93;59.99;96673.63;5087845;28;20523;-68
2021/09/26 01:39:06;;;;;;;10.80;6.47;;;;;;;21.92;59.82;96681.88;5092770;28;20558;-69
2021/09/26 01:41:38;;;;;;;12.17;6.60;;;;;;;21.92;59.99;96680.06;5092283;28;20472;-67
2021/09/26 01:44:15;;;;;;;7.90;6.20;;;;;;;21.88;60.26;96686.91;5092536;28;20420;-67
2021/09/26 01:46:43;;;;;;;7.93;6.33;;;;;;;21.74;60.92;96680.22;5091553;28;20415;-68
2021/09/26 01:49:21;;;;;;;8.23;5.67;;;;;;;21.68;60.82;96679.31;5090965;28;20436;-67
2021/09/26 01:51:47;;;;;;;8.93;6.00;;;;;;;21.66;60.97;96686.72;5074312;28;20489;-67
2021/09/26 01:54:16;;;;;;;12.40;5.70;;;;;;;21.47;61.71;96680.72;5074309;28;20947;-67
2021/09/26 01:56:43;;;;;;;7.27;5.50;;;;;;;21.60;61.58;96685.81;5091398;28;20997;-68
2021/09/26 01:59:10;;;;;;;7.07;5.63;;;;;;;21.57;61.68;96685.44;5090689;28;20949;-67
2021/09/26 02:01:37;;;;;;;7.23;6.53;;;;;;;21.60;61.24;96688.47;5091059;28;21008;-68
2021/09/26 02:04:03;;;;;;;10.33;6.10;;;;;;;21.41;61.81;96687.00;5070823;28;20516;-67
2021/09/26 02:06:29;;;;;;;11.27;6.17;;;;;;;21.45;61.57;96688.97;5086009;28;20454;-67
2021/09/26 02:08:55;;;;;;;11.70;6.23;;;;;;;21.49;61.61;96684.75;5091851;28;20428;-68
2021/09/26 02:11:21;;;;;;;8.73;6.20;;;;;;;21.46;61.94;96677.25;5092159;28;20451;-68
2021/09/26 02:13:48;;;;;;;15.80;6.60;;;;;;;21.23;63.23;96675.41;5090698;28;20470;-68
2021/09/26 02:16:14;;;;;;;8.00;5.97;;;;;;;21.24;63.27;96676.22;5082521;28;20215;-67
2021/09/26 02:18:40;;;;;;;9.60;6.70;;;;;;;21.06;64.36;96674.50;5091738;28;20940;-67
2021/09/26 02:21:07;;;;;;;11.00;7.13;;;;;;;21.20;64.04;96667.88;5091841;28;20182;-67
2021/09/26 02:23:34;;;;;;;8.17;6.40;;;;;;;21.39;62.83;96657.91;5090432;28;20451;-67
2021/09/26 02:26:00;;;;;;;8.87;6.70;;;;;;;21.37;62.94;96659.19;5092578;28;20488;-68
2021/09/26 02:28:25;;;;;;;15.97;6.43;;;;;;;21.45;62.52;96661.47;5090613;28;20420;-69
2021/09/26 02:30:52;;;;;;;10.43;6.20;;;;;;;21.42;62.59;96657.44;5091436;28;20944;-68
2021/09/26 02:33:17;;;;;;;8.33;6.30;;;;;;;21.44;62.74;96660.69;5092278;28;20206;-69
2021/09/26 02:35:43;;;;;;;7.50;5.90;;;;;;;21.31;62.79;96661.72;5087103;28;20424;-68
2021/09/26 02:38:09;;;;;;;10.70;6.47;;;;;;;21.42;62.55;96681.41;5091447;28;20186;-68
2021/09/26 02:40:35;;;;;;;11.90;6.07;;;;;;;21.54;62.00;96680.59;5091982;28;20189;-68
2021/09/26 02:43:06;;;;;;;15.17;5.93;;;;;;;21.21;63.75;96682.03;5090556;28;20660;-69
2021/09/26 02:45:36;;;;;;;9.57;5.90;;;;;;;21.22;63.23;96676.47;5091919;28;20423;-68
2021/09/26 02:48:15;;;;;;;9.47;6.63;;;;;;;21.23;63.59;96679.97;5090674;28;20452;-68
2021/09/26 02:50:43;;;;;;;9.97;6.73;;;;;;;21.35;63.33;96678.09;5091762;28;20518;-68
2021/09/26 02:53:09;;;;;;;6.90;5.50;;;;;;;21.00;64.67;96682.38;5089936;28;20452;-69
2021/09/26 02:55:36;;;;;;;8.00;5.77;;;;;;;21.27;63.73;96675.75;5091757;28;20470;-68
2021/09/26 02:58:02;;;;;;;9.13;7.00;;;;;;;21.15;64.37;96671.25;5073058;28;20460;-67
2021/09/26 03:00:47;;;;;;;9.60;6.70;;;;;;;21.15;64.29;96665.13;5091217;28;20451;-68
2021/09/26 03:03:20;;;;;;;16.63;7.33;;;;;;;21.08;64.69;96664.44;5091320;28;20201;-67
2021/09/26 03:05:47;;;;;;;10.67;6.90;;;;;;;21.31;63.99;96661.72;5086784;28;20419;-69
2021/09/26 03:08:13;;;;;;;12.53;7.40;;;;;;;21.21;64.09;96656.19;5088420;28;20823;-68
2021/09/26 03:10:39;;;;;;;7.40;6.43;;;;;;;21.19;64.12;96658.28;5091342;28;20791;-68
2021/09/26 03:13:05;;;;;;;10.00;7.07;;;;;;;21.10;64.48;96649.84;5085590;28;20463;-68
2021/09/26 03:15:31;;;;;;;8.93;6.30;;;;;;;21.24;64.08;96655.72;5089349;28;20434;-67
2021/09/26 03:17:56;;;;;;;10.63;7.30;;;;;;;21.12;64.69;96649.59;5091103;28;20648;-68
2021/09/26 03:20:32;;;;;;;10.93;6.93;;;;;;;21.15;63.82;96644.63;5091153;28;20277;-69
2021/09/26 03:22:57;;;;;;;8.93;7.43;;;;;;;21.17;63.92;96649.72;5077518;28;20205;-68
2021/09/26 03:25:23;;;;;;;9.53;7.00;;;;;;;21.12;63.60;96641.63;5091513;28;20489;-68
2021/09/26 03:27:49;;;;;;;8.90;6.63;;;;;;;21.06;63.98;96642.53;5090516;28;20526;-68
2021/09/26 03:30:15;;;;;;;9.00;6.50;;;;;;;21.06;63.89;96642.53;5087860;28;20181;-69
2021/09/26 03:32:41;;;;;;;9.50;6.97;;;;;;;20.97;63.88;96640.22;5090668;28;20637;-68
2021/09/26 03:35:08;;;;;;;13.10;7.03;;;;;;;20.80;64.19;96644.63;5090797;28;20488;-68
2021/09/26 03:37:33;;;;;;;9.50;7.10;;;;;;;20.79;64.44;96648.38;5090566;28;20239;-68
2021/09/26 03:39:59;;;;;;;12.97;6.97;;;;;;;20.68;64.42;96648.06;5091234;28;20416;-70
2021/09/26 03:42:25;;;;;;;7.87;6.77;;;;;;;20.46;65.49;96655.81;5091231;28;20232;-68
2021/09/26 03:44:50;;;;;;;14.03;7.80;;;;;;;20.24;66.67;96645.69;5091142;28;20186;-68
2021/09/26 03:47:16;;;;;;;8.43;7.43;;;;;;;20.30;66.75;96648.50;5090540;28;20180;-68
2021/09/26 03:49:42;;;;;;;9.93;7.70;;;;;;;20.38;66.15;96642.81;5091028;28;20182;-68
2021/09/26 03:52:07;;;;;;;10.00;7.67;;;;;;;20.35;66.03;96644.09;5089740;28;20224;-68
2021/09/26 03:54:33;;;;;;;15.13;7.97;;;;;;;20.27;65.91;96647.09;5091352;28;20542;-68
2021/09/26 03:56:58;;;;;;;13.33;7.67;;;;;;;20.24;66.16;96653.66;5091034;28;20197;-68
2021/09/26 03:59:24;;;;;;;11.30;7.67;;;;;;;20.21;66.04;96653.31;5091042;28;20535;-69
2021/09/26 04:01:50;;;;;;;8.77;7.10;;;;;;;19.93;67.90;96662.72;5094614;28;20280;-67
2021/09/26 04:04:16;;;;;;;12.60;8.03;;;;;;;19.83;68.65;96655.25;5095130;28;20196;-68
2021/09/26 04:06:41;;;;;;;20.37;7.60;;;;;;;20.02;67.55;96656.06;5094950;28;20181;-68
2021/09/26 04:09:07;;;;;;;12.00;7.33;;;;;;;20.04;67.34;96653.97;5094391;28;20427;-68
2021/09/26 04:11:34;;;;;;;8.80;7.37;;;;;;;20.05;67.18;96655.59;5094891;28;20630;-69
2021/09/26 04:14:00;;;;;;;16.90;8.10;;;;;;;19.84;68.38;96646.25;5094340;28;20534;-67
2021/09/26 04:16:27;;;;;;;8.60;7.73;;;;;;;20.02;67.39;96656.06;5093905;28;20936;-67
2021/09/26 04:18:52;;;;;;;15.33;7.70;;;;;;;20.05;67.48;96655.59;5094288;28;20436;-67
2021/09/26 04:21:18;;;;;;;11.97;8.10;;;;;;;20.09;67.20;96655.97;5094820;28;20434;-68
2021/09/26 04:23:45;;;;;;;9.07;7.57;;;;;;;20.02;67.17;96661.38;5091884;28;20233;-68
2021/09/26 04:26:11;;;;;;;11.90;7.97;;;;;;;20.03;67.32;96659.50;5094894;28;20420;-67
2021/09/26 04:28:37;;;;;;;14.67;8.30;;;;;;;20.01;67.18;96653.59;5094713;28;20795;-67
2021/09/26 04:31:02;;;;;;;11.60;7.80;;;;;;;19.98;67.48;96654.88;5095155;28;20414;-68
2021/09/26 04:33:28;;;;;;;10.30;7.57;;;;;;;19.94;67.28;96654.53;5098334;28;20193;-69
2021/09/26 04:35:54;;;;;;;12.07;7.50;;;;;;;19.87;67.65;96651.13;5107459;28;20223;-68
2021/09/26 04:38:19;;;;;;;9.20;7.50;;;;;;;19.84;67.55;96653.41;5110323;28;20212;-68
2021/09/26 04:40:45;;;;;;;10.13;7.53;;;;;;;19.77;67.37;96645.50;5113067;28;20181;-68
2021/09/26 04:43:11;;;;;;;9.23;7.17;;;;;;;19.73;67.55;96647.00;5111096;28;20641;-69
2021/09/26 04:45:36;;;;;;;8.20;7.40;;;;;;;19.66;67.83;96649.72;5104046;28;20209;-68
2021/09/26 04:48:04;;;;;;;11.20;8.20;;;;;;;19.62;67.81;96649.38;5102481;28;20284;-68
2021/09/26 04:50:30;;;;;;;9.23;8.33;;;;;;;19.57;67.82;96651.91;5105865;28;20629;-69
2021/09/26 04:52:56;;;;;;;14.00;8.80;;;;;;;19.52;68.07;96656.28;5110539;28;20463;-68
2021/09/26 04:55:24;;;;;;;11.43;8.20;;;;;;;19.47;68.23;96652.44;5112152;28;20480;-69
2021/09/26 04:57:51;;;;;;;10.50;8.87;;;;;;;19.46;68.44;96657.97;5105265;28;20189;-68
2021/09/26 05:00:17;;;;;;;13.00;8.17;;;;;;;19.45;68.72;96661.66;5094145;28;20444;-68
2021/09/26 05:02:43;;;;;;;10.17;8.17;;;;;;;19.46;69.07;96669.41;5091594;28;20534;-68
2021/09/26 05:05:09;;;;;;;9.70;8.73;;;;;;;19.44;69.18;96658.19;5092581;28;20426;-68
2021/09/26 05:07:35;;;;;;;15.70;9.20;;;;;;;19.43;69.33;96659.22;5093614;28;20431;-67
2021/09/26 05:10:00;;;;;;;13.27;8.93;;;;;;;19.38;69.32;96661.72;5092194;28;20648;-68
2021/09/26 05:12:26;;;;;;;12.13;8.77;;;;;;;19.36;69.41;96660.31;5093311;28;20197;-69
2021/09/26 05:14:55;;;;;;;12.83;10.20;;;;;;;19.36;69.33;96663.78;5086516;28;20189;-67
2021/09/26 05:17:21;;;;;;;9.73;8.23;;;;;;;19.37;69.27;96657.44;5092910;28;20178;-68
2021/09/26 05:19:47;;;;;;;17.67;9.03;;;;;;;19.36;69.59;96671.75;5091967;28;20424;-69
2021/09/26 05:22:14;;;;;;;12.83;8.80;;;;;;;19.36;69.25;96669.09;5080483;28;20208;-67
2021/09/26 05:24:40;;;;;;;12.83;8.50;;;;;;;19.34;69.26;96661.34;5093181;28;20419;-68
2021/09/26 05:27:05;;;;;;;13.73;9.50;;;;;;;19.32;69.35;96660.78;5092952;28;20952;-68
2021/09/26 05:29:31;;;;;;;10.83;9.30;;;;;;;19.33;69.76;96657.09;5092976;28;20173;-68
2021/09/26 05:31:56;;;;;;;11.10;9.07;;;;;;;19.26;70.29;96660.84;5086863;28;20217;-68
2021/09/26 05:34:22;;;;;;;11.10;8.43;;;;;;;19.21;70.77;96660.69;5087125;28;20177;-67
2021/09/26 05:36:48;;;;;;;10.77;8.07;;;;;;;19.19;70.90;96658.25;5093043;28;20573;-68
2021/09/26 05:39:14;;;;;;;11.00;8.67;;;;;;;19.23;70.83;96645.34;5092828;28;20261;-68
2021/09/26 05:41:40;;;;;;;17.50;9.73;;;;;;;19.25;71.01;96651.25;5092777;28;20444;-69
2021/09/26 05:44:05;;;;;;;12.50;9.27;;;;;;;19.30;70.68;96654.88;5092876;28;20577;-68
2021/09/26 05:46:31;;;;;;;21.50;9.40;;;;;;;19.39;70.40;96658.03;5092733;28;20174;-68
2021/09/26 05:48:56;;;;;;;12.60;8.33;;;;;;;19.46;70.15;96661.44;5092651;28;20854;-68
2021/09/26 05:51:22;;;;;;;10.53;7.97;;;;;;;19.48;69.91;96667.34;5093190;28;20565;-69
2021/09/26 05:53:48;;;;;;;10.33;8.00;;;;;;;19.55;69.88;96658.47;5093011;28;20215;-68
2021/09/26 05:56:15;;;;;;;10.53;8.13;;;;;;;19.63;69.65;96663.50;5093166;28;20185;-68
2021/09/26 05:58:40;;;;;;;10.40;7.83;;;;;;;19.68;69.22;96660.16;5092794;28;20420;-67
2021/09/26 06:01:06;;;;;;;13.60;8.40;;;;;;;19.76;69.21;96657.19;5092791;28;20421;-68
2021/09/26 06:03:31;;;;;;;10.50;7.90;;;;;;;19.83;68.92;96657.09;5091701;28;20619;-68
2021/09/26 06:05:57;;;;;;;8.77;7.87;;;;;;;19.90;69.00;96655.19;5093660;28;20190;-69
2021/09/26 06:08:26;;;;;;;10.10;8.40;;;;;;;20.01;68.54;96670.38;5093137;28;20547;-68
2021/09/26 06:10:53;;;;;;;10.60;7.83;;;;;;;20.08;68.14;96676.41;5092552;28;20268;-67
2021/09/26 06:13:19;;;;;;;9.53;8.47;;;;;;;20.15;68.18;96671.00;5092475;28;20489;-67
2021/09/26 06:15:45;;;;;;;15.30;8.53;;;;;;;20.23;68.11;96677.84;5092306;28;20826;-67
2021/09/26 06:18:10;;;;;;;12.97;8.20;;;;;;;20.34;68.01;96669.09;5092382;28;20420;-67
2021/09/26 06:20:36;;;;;;;10.20;8.30;;;;;;;20.46;67.98;96670.97;5092743;28;20177;-68
2021/09/26 06:23:01;;;;;;;13.10;8.73;;;;;;;20.53;67.82;96677.00;5091812;28;20707;-67
2021/09/26 06:25:28;;;;;;;13.27;9.20;;;;;;;20.61;67.43;96673.16;5092516;28;20184;-68
2021/09/26 06:27:57;;;;;;;9.93;8.37;;;;;;;20.63;67.12;96666.59;5091583;28;20251;-67
2021/09/26 06:30:22;;;;;;;14.23;8.30;;;;;;;20.75;66.80;96674.63;5091642;28;20924;-68
2021/09/26 06:32:48;;;;;;;17.03;9.07;;;;;;;20.71;67.09;96676.91;5090144;28;20460;-67
2021/09/26 06:35:14;;;;;;;14.83;8.37;;;;;;;20.85;67.02;96676.72;5086141;28;20269;-68
2021/09/26 06:37:40;;;;;;;15.33;8.37;;;;;;;21.00;66.85;96666.41;5095067;28;20197;-68
2021/09/26 06:40:07;;;;;;;11.50;7.13;;;;;;;21.13;66.44;96669.88;5091968;28;20659;-68
2021/09/26 06:42:34;;;;;;;11.07;7.97;;;;;;;21.32;65.89;96678.53;5092352;28;20467;-68
2021/09/26 06:44:59;;;;;;;16.87;8.10;;;;;;;21.48;65.29;96683.13;5091590;28;20438;-69
2021/09/26 06:47:25;;;;;;;13.13;7.33;;;;;;;21.64;64.60;96691.47;5091712;28;20423;-69
2021/09/26 06:49:51;;;;;;;10.93;7.83;;;;;;;21.75;63.89;96705.84;5091772;28;20189;-68
2021/09/26 06:52:17;;;;;;;14.00;7.93;;;;;;;21.84;63.60;96707.06;5091589;28;20640;-68
2021/09/26 06:54:43;;;;;;;11.90;7.77;;;;;;;22.03;63.20;96707.72;5091744;28;20416;-67
2021/09/26 06:57:09;;;;;;;12.90;7.20;;;;;;;22.15;62.52;96705.00;5091401;28;20242;-67
2021/09/26 06:59:35;;;;;;;13.10;7.77;;;;;;;22.22;62.15;96719.00;5091386;28;20213;-68
2021/09/26 07:02:01;;;;;;;14.73;7.70;;;;;;;22.27;62.29;96720.94;5090112;28;20487;-68
2021/09/26 07:04:26;;;;;;;14.93;7.30;;;;;;;22.54;61.46;96718.53;5091576;28;20670;-68
2021/09/26 07:06:52;;;;;;;11.63;6.97;;;;;;;22.74;60.43;96708.44;5091752;28;20656;-68
2021/09/26 07:09:18;;;;;;;9.70;7.67;;;;;;;22.79;60.05;96716.50;5089025;28;20177;-68
2021/09/26 07:11:44;;;;;;;14.07;7.97;;;;;;;23.07;59.53;96710.25;5091399;28;20201;-69
2021/09/26 07:14:10;;;;;;;11.97;6.97;;;;;;;23.28;59.26;96713.28;5090918;28;20174;-67
2021/09/26 07:16:35;;;;;;;10.60;6.40;;;;;;;23.53;58.60;96714.66;5091455;28;20420;-68
2021/09/26 07:19:01;;;;;;;8.00;5.87;;;;;;;23.55;57.63;96715.22;5085870;28;20268;-69
2021/09/26 07:21:27;;;;;;;7.60;6.03;;;;;;;23.68;57.19;96720.22;5092733;28;20185;-67
2021/09/26 07:23:53;;;;;;;14.33;7.37;;;;;;;23.13;58.67;96719.97;5089096;28;20801;-68
2021/09/26 07:26:19;;;;;;;13.53;6.63;;;;;;;23.47;57.94;96727.97;5091719;28;20747;-67
2021/09/26 07:28:44;;;;;;;10.83;6.40;;;;;;;23.49;57.60;96734.94;5091205;28;20502;-67
2021/09/26 07:31:10;;;;;;;8.23;6.20;;;;;;;23.71;57.47;96734.94;5091341;28;20205;-69
2021/09/26 07:33:36;;;;;;;8.70;6.73;;;;;;;23.73;57.24;96732.84;5089566;28;20197;-68
2021/09/26 07:36:01;;;;;;;12.03;6.43;;;;;;;23.72;56.99;96744.59;5094308;28;20649;-67
2021/09/26 07:38:27;;;;;;;13.50;6.50;;;;;;;23.68;57.43;96738.13;5095652;28;20207;-67
2021/09/26 07:40:53;;;;;;;7.60;6.40;;;;;;;23.83;56.89;96745.50;5095617;28;20173;-67
2021/09/26 07:43:19;;;;;;;10.27;6.93;;;;;;;23.91;56.78;96737.06;5087355;28;20205;-68
2021/09/26 07:45:45;;;;;;;9.20;5.63;;;;;;;23.86;56.88;96745.84;5095450;28;20453;-68
2021/09/26 07:48:11;;;;;;;11.03;5.90;;;;;;;23.83;56.67;96745.50;5095768;28;20423;-69
2021/09/26 07:50:36;;;;;;;11.73;6.80;;;;;;;23.63;57.24;96747.69;5096080;28;20213;-68
2021/09/26 07:53:02;;;;;;;9.60;6.53;;;;;;;23.88;56.95;96758.97;5095162;28;20240;-68
2021/09/26 07:55:28;;;;;;;12.50;6.57;;;;;;;23.44;57.94;96773.91;5077570;28;20659;-68
2021/09/26 07:57:53;;;;;;;7.80;6.10;;;;;;;23.23;58.46;96775.47;5095277;28;20184;-69
2021/09/26 08:00:19;;;;;;;14.60;7.57;;;;;;;23.31;58.51;96784.97;5082861;28;20265;-69
2021/09/26 08:02:45;;;;;;;10.10;6.00;;;;;;;23.50;57.63;96784.69;5090782;28;20255;-67
2021/09/26 08:05:11;;;;;;;16.67;6.67;;;;;;;23.61;57.60;96787.25;5094910;28;20192;-67
2021/09/26 08:07:37;;;;;;;10.30;7.37;;;;;;;23.95;56.55;96785.53;5094569;28;20189;-67
2021/09/26 08:10:04;;;;;;;8.27;7.03;;;;;;;23.97;56.17;96792.28;5094320;28;20427;-67
2021/09/26 08:12:30;;;;;;;8.33;6.30;;;;;;;23.46;58.09;96806.53;5094545;28;20824;-69
2021/09/26 08:14:56;;;;;;;9.47;6.47;;;;;;;23.78;57.19;96819.31;5094589;28;20425;-67
2021/09/26 08:17:22;;;;;;;7.47;6.43;;;;;;;22.70;60.40;96823.75;5094721;28;20184;-67
2021/09/26 08:19:47;;;;;;;10.63;6.83;;;;;;;23.53;57.96;96810.94;5093372;28;20178;-68
2021/09/26 08:22:13;;;;;;;9.90;6.33;;;;;;;23.22;59.14;96810.47;5094372;28;20439;-67
2021/09/26 08:24:39;;;;;;;9.17;7.23;;;;;;;23.46;58.65;96811.91;5094701;28;20186;-67
2021/09/26 08:27:05;;;;;;;9.97;6.90;;;;;;;23.62;58.05;96820.16;5094161;28;20588;-70
2021/09/26 08:29:31;;;;;;;14.47;6.93;;;;;;;23.78;57.71;96821.16;5094626;28;20256;-67
2021/09/26 08:31:57;;;;;;;13.53;6.70;;;;;;;23.82;57.98;96818.81;5094123;28;20585;-68
2021/09/26 08:34:23;;;;;;;10.93;6.40;;;;;;;24.04;57.47;96816.19;5094430;28;20416;-68
2021/09/26 08:36:49;;;;;;;12.10;7.43;;;;;;;24.14;56.86;96820.84;5094211;28;20339;-68
2021/09/26 08:39:15;;;;;;;11.27;6.83;;;;;;;24.59;56.01;96811.72;5093855;28;20419;-68
2021/09/26 08:41:42;;;;;;;17.27;7.03;;;;;;;24.01;57.00;96814.81;5093990;28;20415;-68
2021/09/26 08:44:08;;;;;;;12.80;7.20;;;;;;;24.47;55.78;96819.91;5094052;28;20201;-68
2021/09/26 08:46:34;;;;;;;6.60;5.90;;;;;;;24.27;56.29;96815.13;5093662;28;20427;-68
2021/09/26 08:49:00;;;;;;;12.40;6.33;;;;;;;24.71;55.24;96824.16;5092395;28;20419;-67
2021/09/26 08:51:25;;;;;;;15.90;6.00;;;;;;;24.34;55.60;96834.47;5094111;28;20808;-67
2021/09/26 08:53:51;;;;;;;8.17;6.20;;;;;;;24.31;55.35;96836.84;5093664;28;20263;-67
2021/09/26 08:56:18;;;;;;;11.97;6.20;;;;;;;24.31;54.79;96840.34;5092338;28;20204;-68
2021/09/26 08:58:44;;;;;;;11.30;6.17;;;;;;;24.35;54.73;96832.63;5051463;28;20178;-67
2021/09/26 09:01:10;;;;;;;12.30;6.07;;;;;;;23.94;56.13;96840.94;5093247;28;20412;-69
2021/09/26 09:03:35;;;;;;;11.67;6.33;;;;;;;24.01;56.06;96832.72;5092503;28;20958;-68
2021/09/26 09:06:01;;;;;;;8.87;5.87;;;;;;;24.02;55.71;96837.84;5089169;28;20193;-68
2021/09/26 09:08:27;;;;;;;8.37;6.17;;;;;;;23.87;56.35;96832.25;5093509;28;20174;-69
2021/09/26 09:10:58;;;;;;;10.50;6.33;;;;;;;23.03;58.43;96834.72;5093113;28;20178;-68
2021/09/26 09:13:32;;;;;;;10.40;5.80;;;;;;;23.21;58.00;96832.88;5094402;28;20198;-68
2021/09/26 09:16:02;;;;;;;11.43;6.20;;;;;;;23.42;56.67;96832.19;5094306;28;20915;-67
2021/09/26 09:18:45;;;;;;;10.60;7.47;;;;;;;23.24;57.58;96840.44;5090070;28;20453;-68
2021/09/26 09:21:37;;;;;;;12.40;7.60;;;;;;;22.61;59.02;96840.38;5094048;28;20899;-67
2021/09/26 09:24:24;;;;;;;11.70;7.80;;;;;;;22.42;60.29;96839.75;5106365;28;20874;-68
2021/09/26 09:26:52;;;;;;;11.80;7.90;;;;;;;22.57;59.03;96847.25;5103867;28;20416;-68
2021/09/26 09:29:20;;;;;;;8.53;7.67;;;;;;;22.00;59.63;96844.22;5095590;28;20427;-69
2021/09/26 09:31:48;;;;;;;10.13;8.43;;;;;;;23.05;57.55;96853.19;5090864;28;20452;-67
2021/09/26 09:34:38;;;;;;;9.30;8.33;;;;;;;22.72;58.72;96854.75;5085966;28;20438;-67
2021/09/26 09:37:26;;;;;;;11.07;9.20;;;;;;;23.22;57.22;96855.88;5095095;28;20578;-67
2021/09/26 09:40:12;;;;;;;11.80;9.10;;;;;;;23.40;57.22;96849.50;5109691;28;20438;-69
2021/09/26 09:42:50;;;;;;;11.93;9.47;;;;;;;23.15;57.50;96848.81;5109468;28;20455;-67
2021/09/26 09:45:16;;;;;;;9.90;8.97;;;;;;;22.96;57.96;96847.41;5095972;28;20538;-69
2021/09/26 09:48:09;;;;;;;11.67;8.47;;;;;;;22.66;58.59;96841.28;5084251;28;20420;-68
2021/09/26 09:50:42;;;;;;;10.50;9.40;;;;;;;22.88;59.08;96850.47;5087887;28;21184;-67
2021/09/26 09:53:18;;;;;;;10.80;8.80;;;;;;;22.82;58.91;96842.38;5092722;28;20466;-68
2021/09/26 09:55:44;;;;;;;10.87;9.77;;;;;;;22.79;59.64;96845.53;5092717;28;20785;-68
2021/09/26 09:58:14;;;;;;;17.80;13.27;;;;;;;22.76;60.09;96851.34;5091532;28;20411;-68
2021/09/26 10:01:07;;;;;;;12.83;9.93;;;;;;;22.79;59.65;96842.88;5092695;28;20620;-68
2021/09/26 10:03:39;;;;;;;11.47;9.40;;;;;;;22.50;61.17;96831.34;5091251;28;20947;-67
2021/09/26 10:06:22;;;;;;;11.80;10.60;;;;;;;22.54;61.77;96840.53;5093418;28;20416;-67
2021/09/26 10:08:48;;;;;;;11.07;9.97;;;;;;;22.39;62.26;96841.03;5093160;28;20412;-68
2021/09/26 10:11:14;;;;;;;13.07;10.57;;;;;;;22.20;62.16;96835.03;5092119;28;20431;-67
2021/09/26 10:13:39;;;;;;;13.40;11.37;;;;;;;22.32;62.37;96829.66;5093661;28;20854;-68
2021/09/26 10:16:06;;;;;;;15.07;11.43;;;;;;;22.40;62.16;96831.97;5094102;28;20208;-68
2021/09/26 10:18:33;;;;;;;13.90;10.83;;;;;;;22.52;62.02;96824.75;5095331;28;20174;-68
2021/09/26 10:21:00;;;;;;;12.63;11.10;;;;;;;22.42;62.36;96823.75;5093606;28;20423;-68
2021/09/26 10:23:26;;;;;;;15.53;11.20;;;;;;;22.48;62.65;96818.25;5093817;28;20477;-68
2021/09/26 10:25:52;;;;;;;13.97;11.47;;;;;;;22.38;62.70;96812.69;5093774;28;20915;-68
2021/09/26 10:28:18;;;;;;;13.70;10.93;;;;;;;22.43;63.08;96822.69;5092322;28;20670;-67
2021/09/26 10:30:44;;;;;;;12.03;10.80;;;;;;;22.95;62.22;96833.25;5091963;28;20489;-67
2021/09/26 10:33:11;;;;;;;11.03;9.70;;;;;;;22.97;61.99;96836.50;5090272;28;20463;-67
2021/09/26 10:35:38;;;;;;;12.50;9.83;;;;;;;22.81;61.94;96834.59;5093645;28;20186;-68
2021/09/26 10:38:09;;;;;;;11.13;9.93;;;;;;;22.69;61.63;96837.31;5092045;28;20770;-68
2021/09/26 10:40:37;;;;;;;12.43;10.10;;;;;;;22.77;61.49;96836.94;5090743;28;20789;-68
2021/09/26 10:43:25;;;;;;;13.77;9.00;;;;;;;22.63;62.21;96836.41;5090950;28;20446;-68
2021/09/26 10:46:11;;;;;;;18.50;10.10;;;;;;;22.90;61.20;96829.69;5091916;28;20795;-68
2021/09/26 10:49:00;;;;;;;10.70;9.60;;;;;;;22.85;61.03;96838.44;5091941;28;20424;-68
2021/09/26 10:51:44;;;;;;;11.90;8.57;;;;;;;22.79;60.39;96834.03;5086290;28;20448;-67
2021/09/26 10:54:24;;;;;;;9.73;8.83;;;;;;;22.61;61.17;96832.38;5093351;28;20419;-68
2021/09/26 10:56:53;;;;;;;14.93;8.30;;;;;;;22.76;60.72;96834.50;5093668;28;20480;-69
2021/09/26 10:59:21;;;;;;;8.70;7.90;;;;;;;22.68;60.91;96835.72;5091421;28;20415;-67
2021/09/26 11:01:47;;;;;;;9.80;8.83;;;;;;;22.38;62.20;96826.84;5090177;28;20498;-67
2021/09/26 11:04:13;;;;;;;9.23;8.33;;;;;;;22.54;61.46;96832.50;5090226;28;20895;-68
2021/09/26 11:06:39;;;;;;;9.70;7.93;;;;;;;22.53;61.56;96830.88;5091689;28;20272;-68
2021/09/26 11:09:08;;;;;;;11.77;8.40;;;;;;;22.51;61.60;96823.13;5089253;28;20538;-68
2021/09/26 11:11:40;;;;;;;9.40;8.43;;;;;;;22.51;61.92;96817.78;5090988;28;20206;-69
2021/09/26 11:14:07;;;;;;;8.97;8.07;;;;;;;22.72;61.25;96810.13;5088413;28;20434;-68
2021/09/26 11:16:51;;;;;;;9.63;8.53;;;;;;;22.54;62.39;96808.47;5091649;28;20428;-68
2021/09/26 11:19:18;;;;;;;10.40;7.97;;;;;;;22.63;61.96;96795.56;5090965;28;20408;-68
2021/09/26 11:21:44;;;;;;;14.77;9.70;;;;;;;22.61;61.96;96795.00;5092393;28;20813;-68
2021/09/26 11:24:13;;;;;;;10.37;9.37;;;;;;;22.67;61.61;96788.69;5092261;28;20416;-68
2021/09/26 11:27:00;;;;;;;9.67;8.77;;;;;;;22.70;61.38;96775.69;5092226;28;20424;-67
2021/09/26 11:29:39;;;;;;;10.07;8.87;;;;;;;22.95;60.58;96773.66;5091366;28;20424;-67
2021/09/26 11:32:07;;;;;;;10.63;9.53;;;;;;;23.20;59.49;96777.81;5086398;28;21036;-69
2021/09/26 11:34:38;;;;;;;12.37;9.33;;;;;;;23.38;59.02;96776.75;5092144;28;20427;-67